sensor_id;sensor_type;location;lat;lon;timestamp;pressure;altitude;pressure_sealevel;temperature;humidity
27429;BME280;14881;48.092;11.574;2023-02-22T00:00:45;95399.25;;;-0.01;100.00
27429;BME280;14881;48.092;11.574;2023-02-22T00:03:17;95392.56;;;-0.10;100.00
27429;BME280;14881;48.092;11.574;2023-02-22T00:05:55;95383.50;;;-0.21;100.00
27429;BME280;14881;48.092;11.574;2023-02-22T00:08:25;95393.19;;;-0.26;100.00
27429;BME280;14881;48.092;11.574;2023-02-22T00:10:55;95385.25;;;-0.33;100.00
27429;BME280;14881;48.092;11.574;2023-02-22T00:13:24;95386.56;;;-0.36;100.00
27429;BME280;14881;48.092;11.574;2023-02-22T00:15:55;95384.91;;;-0.37;100.00
27429;BME280;14881;48.092;11.574;2023-02-22T00:18:23;95379.38;;;-0.35;100.00
27429;BME280;14881;48.092;11.574;2023-02-22T00:20:54;95391.28;;;-0.38;100.00
27429;BME280;14881;48.092;11.574;2023-02-22T00:23:27;95393.28;;;-0.33;100.00
27429;BME280;14881;48.092;11.574;2023-02-22T00:25:56;95386.78;;;-0.37;100.00
27429;BME280;14881;48.092;11.574;2023-02-22T00:28:24;95386.41;;;-0.41;100.00
27429;BME280;14881;48.092;11.574;2023-02-22T00:30:56;95387.28;;;-0.47;100.00
27429;BME280;14881;48.092;11.574;2023-02-22T00:33:28;95392.84;;;-0.48;100.00
27429;BME280;14881;48.092;11.574;2023-02-22T00:35:57;95391.91;;;-0.54;100.00
27429;BME280;14881;48.092;11.574;2023-02-22T00:38:25;95389.56;;;-0.50;100.00
27429;BME280;14881;48.092;11.574;2023-02-22T00:40:52;95388.75;;;-0.51;100.00
27429;BME280;14881;48.092;11.574;2023-02-22T00:43:21;95388.41;;;-0.54;100.00
27429;BME280;14881;48.092;11.574;2023-02-22T00:45:50;95387.38;;;-0.53;100.00
27429;BME280;14881;48.092;11.574;2023-02-22T00:48:19;95384.72;;;-0.53;100.00
27429;BME280;14881;48.092;11.574;2023-02-22T00:50:47;95374.72;;;-0.58;100.00
27429;BME280;14881;48.092;11.574;2023-02-22T00:53:16;95374.72;;;-0.58;100.00
27429;BME280;14881;48.092;11.574;2023-02-22T00:55:44;95372.03;;;-0.58;100.00
27429;BME280;14881;48.092;11.574;2023-02-22T00:58:12;95369.81;;;-0.61;100.00
27429;BME280;14881;48.092;11.574;2023-02-22T01:00:41;95367.75;;;-0.59;100.00
27429;BME280;14881;48.092;11.574;2023-02-22T01:03:11;95367.75;;;-0.59;100.00
27429;BME280;14881;48.092;11.574;2023-02-22T01:05:40;95361.59;;;-0.59;100.00
27429;BME280;14881;48.092;11.574;2023-02-22T01:08:09;95363.81;;;-0.56;100.00
27429;BME280;14881;48.092;11.574;2023-02-22T01:10:39;95361.75;;;-0.54;100.00
27429;BME280;14881;48.092;11.574;2023-02-22T01:13:08;95357.00;;;-0.52;100.00
27429;BME280;14881;48.092;11.574;2023-02-22T01:15:39;95350.94;;;-0.59;100.00
27429;BME280;14881;48.092;11.574;2023-02-22T01:18:08;95349.88;;;-0.58;100.00
27429;BME280;14881;48.092;11.574;2023-02-22T01:20:37;95347.06;;;-0.63;100.00
27429;BME280;14881;48.092;11.574;2023-02-22T01:23:05;95344.78;;;-0.60;100.00
27429;BME280;14881;48.092;11.574;2023-02-22T01:25:34;95343.72;;;-0.59;100.00
27429;BME280;14881;48.092;11.574;2023-02-22T01:28:05;95341.78;;;-0.52;100.00
27429;BME280;14881;48.092;11.574;2023-02-22T01:30:34;95344.09;;;-0.55;100.00
27429;BME280;14881;48.092;11.574;2023-02-22T01:33:04;95347.50;;;-0.66;100.00
27429;BME280;14881;48.092;11.574;2023-02-22T01:35:34;95341.56;;;-0.68;100.00
27429;BME280;14881;48.092;11.574;2023-02-22T01:38:03;95346.41;;;-0.77;100.00
27429;BME280;14881;48.092;11.574;2023-02-22T01:40:35;95351.22;;;-0.67;100.00
27429;BME280;14881;48.092;11.574;2023-02-22T01:43:14;95348.19;;;-0.71;100.00
27429;BME280;14881;48.092;11.574;2023-02-22T01:45:49;95348.41;;;-0.73;100.00
27429;BME280;14881;48.092;11.574;2023-02-22T01:48:21;95342.19;;;-0.66;100.00
27429;BME280;14881;48.092;11.574;2023-02-22T01:50:53;95341.69;;;-0.75;100.00
27429;BME280;14881;48.092;11.574;2023-02-22T01:53:25;95341.91;;;-0.77;100.00
27429;BME280;14881;48.092;11.574;2023-02-22T01:55:55;95339.06;;;-0.82;100.00
27429;BME280;14881;48.092;11.574;2023-02-22T01:58:26;95338.25;;;-0.82;100.00
27429;BME280;14881;48.092;11.574;2023-02-22T02:00:56;95340.94;;;-0.82;100.00
27429;BME280;14881;48.092;11.574;2023-02-22T02:03:27;95347.97;;;-0.88;100.00
27429;BME280;14881;48.092;11.574;2023-02-22T02:05:58;95344.34;;;-0.93;100.00
27429;BME280;14881;48.092;11.574;2023-02-22T02:08:32;95336.34;;;-0.93;100.00
27429;BME280;14881;48.092;11.574;2023-02-22T02:11:04;95339.59;;;-0.91;100.00
27429;BME280;14881;48.092;11.574;2023-02-22T02:13:36;95339.44;;;-0.96;100.00
27429;BME280;14881;48.092;11.574;2023-02-22T02:16:10;95332.06;;;-0.94;100.00
27429;BME280;14881;48.092;11.574;2023-02-22T02:18:38;95322.41;;;-0.95;100.00
27429;BME280;14881;48.092;11.574;2023-02-22T02:24:27;95321.75;;;-0.91;100.00
27429;BME280;14881;48.092;11.574;2023-02-22T02:27:16;95314.47;;;-0.84;100.00
27429;BME280;14881;48.092;11.574;2023-02-22T02:30:31;95302.19;;;-0.85;100.00
27429;BME280;14881;48.092;11.574;2023-02-22T02:33:07;95306.47;;;-0.84;100.00
27429;BME280;14881;48.092;11.574;2023-02-22T02:35:46;95300.13;;;-0.83;100.00
27429;BME280;14881;48.092;11.574;2023-02-22T02:38:24;95294.66;;;-0.88;100.00
27429;BME280;14881;48.092;11.574;2023-02-22T02:41:02;95298.38;;;-0.89;100.00
27429;BME280;14881;48.092;11.574;2023-02-22T02:43:38;95288.50;;;-0.88;100.00
27429;BME280;14881;48.092;11.574;2023-02-22T02:46:11;95285.47;;;-0.92;100.00
27429;BME280;14881;48.092;11.574;2023-02-22T02:48:45;95287.69;;;-0.89;100.00
27429;BME280;14881;48.092;11.574;2023-02-22T02:51:19;95284.44;;;-0.91;100.00
27429;BME280;14881;48.092;11.574;2023-02-22T02:53:50;95279.91;;;-0.90;100.00
27429;BME280;14881;48.092;11.574;2023-02-22T02:56:18;95283.63;;;-0.91;100.00
27429;BME280;14881;48.092;11.574;2023-02-22T02:58:50;95267.09;;;-1.00;100.00
27429;BME280;14881;48.092;11.574;2023-02-22T03:01:34;95282.50;;;-1.02;100.00
27429;BME280;14881;48.092;11.574;2023-02-22T03:04:36;95274.38;;;-1.07;100.00
27429;BME280;14881;48.092;11.574;2023-02-22T03:07:22;95279.50;;;-1.06;100.00
27429;BME280;14881;48.092;11.574;2023-02-22T03:10:04;95276.59;;;-1.04;100.00
27429;BME280;14881;48.092;11.574;2023-02-22T03:12:46;95265.69;;;-1.02;100.00
27429;BME280;14881;48.092;11.574;2023-02-22T03:15:24;95271.63;;;-1.00;100.00
27429;BME280;14881;48.092;11.574;2023-02-22T03:18:03;95265.69;;;-1.02;100.00
27429;BME280;14881;48.092;11.574;2023-02-22T03:20:42;95265.25;;;-0.99;100.00
27429;BME280;14881;48.092;11.574;2023-02-22T03:23:18;95269.78;;;-1.00;100.00
27429;BME280;14881;48.092;11.574;2023-02-22T03:25:54;95266.06;;;-0.99;100.00
27429;BME280;14881;48.092;11.574;2023-02-22T03:28:28;95260.53;;;-0.97;100.00
27429;BME280;14881;48.092;11.574;2023-02-22T03:30:59;95259.69;;;-0.98;100.00
27429;BME280;14881;48.092;11.574;2023-02-22T03:33:31;95263.56;;;-0.94;100.00
27429;BME280;14881;48.092;11.574;2023-02-22T03:36:07;95272.16;;;-0.92;100.00
27429;BME280;14881;48.092;11.574;2023-02-22T03:38:37;95270.66;;;-0.88;100.00
27429;BME280;14881;48.092;11.574;2023-02-22T03:41:07;95275.75;;;-0.86;100.00
27429;BME280;14881;48.092;11.574;2023-02-22T03:43:41;95281.66;;;-0.84;100.00
27429;BME280;14881;48.092;11.574;2023-02-22T03:46:11;95284.88;;;-0.76;100.00
27429;BME280;14881;48.092;11.574;2023-02-22T03:48:44;95288.34;;;-0.75;100.00
27429;BME280;14881;48.092;11.574;2023-02-22T03:51:16;95288.94;;;-0.73;100.00
27429;BME280;14881;48.092;11.574;2023-02-22T03:53:45;95287.19;;;-0.67;100.00
27429;BME280;14881;48.092;11.574;2023-02-22T03:56:17;95279.44;;;-0.69;100.00
27429;BME280;14881;48.092;11.574;2023-02-22T03:58:48;95278.63;;;-0.69;100.00
27429;BME280;14881;48.092;11.574;2023-02-22T04:01:17;95283.38;;;-0.72;100.00
27429;BME280;14881;48.092;11.574;2023-02-22T04:03:52;95282.69;;;-0.67;100.00
27429;BME280;14881;48.092;11.574;2023-02-22T04:06:21;95290.56;;;-0.72;100.00
27429;BME280;14881;48.092;11.574;2023-02-22T04:08:51;95289.81;;;-0.79;100.00
27429;BME280;14881;48.092;11.574;2023-02-22T04:11:19;95288.56;;;-0.77;100.00
27429;BME280;14881;48.092;11.574;2023-02-22T04:13:46;95278.19;;;-0.85;100.00
27429;BME280;14881;48.092;11.574;2023-02-22T04:16:14;95278.88;;;-0.89;100.00
27429;BME280;14881;48.092;11.574;2023-02-22T04:18:42;95274.16;;;-0.87;100.00
27429;BME280;14881;48.092;11.574;2023-02-22T04:21:10;95275.41;;;-0.90;100.00
27429;BME280;14881;48.092;11.574;2023-02-22T04:23:39;95268.00;;;-0.88;100.00
27429;BME280;14881;48.092;11.574;2023-02-22T04:26:07;95272.53;;;-0.88;100.00
27429;BME280;14881;48.092;11.574;2023-02-22T04:28:35;95264.53;;;-0.88;100.00
27429;BME280;14881;48.092;11.574;2023-02-22T04:31:03;95270.75;;;-0.94;100.00
27429;BME280;14881;48.092;11.574;2023-02-22T04:33:30;95270.13;;;-0.96;100.00
27429;BME280;14881;48.092;11.574;2023-02-22T04:35:58;95267.25;;;-0.95;100.00
27429;BME280;14881;48.092;11.574;2023-02-22T04:38:26;95255.41;;;-0.99;100.00
27429;BME280;14881;48.092;11.574;2023-02-22T04:40:55;95257.03;;;-0.98;100.00
27429;BME280;14881;48.092;11.574;2023-02-22T04:43:23;95255.63;;;-1.00;100.00
27429;BME280;14881;48.092;11.574;2023-02-22T04:45:50;95253.56;;;-0.98;100.00
27429;BME280;14881;48.092;11.574;2023-02-22T04:48:18;95252.38;;;-1.02;100.00
27429;BME280;14881;48.092;11.574;2023-02-22T04:50:46;95250.28;;;-1.00;100.00
27429;BME280;14881;48.092;11.574;2023-02-22T04:53:13;95251.72;;;-0.98;100.00
27429;BME280;14881;48.092;11.574;2023-02-22T04:55:41;95251.13;;;-1.00;100.00
27429;BME280;14881;48.092;11.574;2023-02-22T04:58:10;95252.84;;;-1.06;100.00
27429;BME280;14881;48.092;11.574;2023-02-22T05:00:38;95250.06;;;-0.99;100.00
27429;BME280;14881;48.092;11.574;2023-02-22T05:03:06;95256.66;;;-1.01;100.00
27429;BME280;14881;48.092;11.574;2023-02-22T05:05:34;95254.69;;;-1.06;100.00
27429;BME280;14881;48.092;11.574;2023-02-22T05:08:02;95253.06;;;-1.07;100.00
27429;BME280;14881;48.092;11.574;2023-02-22T05:10:30;95254.75;;;-1.13;100.00
27429;BME280;14881;48.092;11.574;2023-02-22T05:12:57;95247.88;;;-1.20;100.00
27429;BME280;14881;48.092;11.574;2023-02-22T05:15:26;95256.09;;;-1.22;100.00
27429;BME280;14881;48.092;11.574;2023-02-22T05:17:54;95251.00;;;-1.23;100.00
27429;BME280;14881;48.092;11.574;2023-02-22T05:20:25;95245.66;;;-1.23;100.00
27429;BME280;14881;48.092;11.574;2023-02-22T05:22:54;95244.25;;;-1.26;100.00
27429;BME280;14881;48.092;11.574;2023-02-22T05:25:23;95241.59;;;-1.26;100.00
27429;BME280;14881;48.092;11.574;2023-02-22T05:27:51;95240.56;;;-1.25;100.00
27429;BME280;14881;48.092;11.574;2023-02-22T05:30:21;95236.47;;;-1.27;100.00
27429;BME280;14881;48.092;11.574;2023-02-22T05:32:54;95234.47;;;-1.32;100.00
27429;BME280;14881;48.092;11.574;2023-02-22T05:35:22;95234.25;;;-1.30;100.00
27429;BME280;14881;48.092;11.574;2023-02-22T05:37:51;95241.81;;;-1.27;100.00
27429;BME280;14881;48.092;11.574;2023-02-22T05:40:24;95239.97;;;-1.27;100.00
27429;BME280;14881;48.092;11.574;2023-02-22T05:42:52;95234.03;;;-1.29;100.00
27429;BME280;14881;48.092;11.574;2023-02-22T05:45:21;95235.13;;;-1.36;100.00
27429;BME280;14881;48.092;11.574;2023-02-22T05:47:50;95230.03;;;-1.38;100.00
27429;BME280;14881;48.092;11.574;2023-02-22T05:50:20;95234.78;;;-1.40;100.00
27429;BME280;14881;48.092;11.574;2023-02-22T05:52:48;95232.78;;;-1.45;100.00
27429;BME280;14881;48.092;11.574;2023-02-22T05:55:18;95232.84;;;-1.51;100.00
27429;BME280;14881;48.092;11.574;2023-02-22T05:57:47;95225.44;;;-1.49;100.00
27429;BME280;14881;48.092;11.574;2023-02-22T06:00:19;95223.38;;;-1.47;100.00
27429;BME280;14881;48.092;11.574;2023-02-22T06:02:53;95226.22;;;-1.42;100.00
27429;BME280;14881;48.092;11.574;2023-02-22T06:05:22;95226.66;;;-1.45;100.00
27429;BME280;14881;48.092;11.574;2023-02-22T06:07:50;95227.91;;;-1.48;100.00
27429;BME280;14881;48.092;11.574;2023-02-22T06:10:17;95231.97;;;-1.45;100.00
27429;BME280;14881;48.092;11.574;2023-02-22T06:12:45;95231.97;;;-1.45;100.00
27429;BME280;14881;48.092;11.574;2023-02-22T06:15:13;95227.69;;;-1.46;100.00
27429;BME280;14881;48.092;11.574;2023-02-22T06:17:42;95223.00;;;-1.51;100.00
27429;BME280;14881;48.092;11.574;2023-02-22T06:20:14;95233.59;;;-1.44;100.00
27429;BME280;14881;48.092;11.574;2023-02-22T06:22:45;95233.38;;;-1.43;100.00
27429;BME280;14881;48.092;11.574;2023-02-22T06:25:15;95236.47;;;-1.46;100.00
27429;BME280;14881;48.092;11.574;2023-02-22T06:27:43;95230.50;;;-1.41;100.00
27429;BME280;14881;48.092;11.574;2023-02-22T06:30:12;95230.28;;;-1.39;100.00
27429;BME280;14881;48.092;11.574;2023-02-22T06:32:40;95234.25;;;-1.30;100.00
27429;BME280;14881;48.092;11.574;2023-02-22T06:35:08;95238.56;;;-1.29;100.00
27429;BME280;14881;48.092;11.574;2023-02-22T06:37:36;95235.34;;;-1.20;100.00
27429;BME280;14881;48.092;11.574;2023-02-22T06:40:06;95240.25;;;-1.17;100.00
27429;BME280;14881;48.092;11.574;2023-02-22T06:42:34;95245.78;;;-1.18;100.00
27429;BME280;14881;48.092;11.574;2023-02-22T06:45:02;95246.31;;;-1.10;100.00
27429;BME280;14881;48.092;11.574;2023-02-22T06:47:30;95256.31;;;-1.05;100.00
27429;BME280;14881;48.092;11.574;2023-02-22T06:49:58;95255.63;;;-1.00;100.00
27429;BME280;14881;48.092;11.574;2023-02-22T06:52:26;95250.22;;;-0.94;100.00
27429;BME280;14881;48.092;11.574;2023-02-22T06:54:54;95251.19;;;-0.88;100.00
27429;BME280;14881;48.092;11.574;2023-02-22T06:57:30;95257.81;;;-0.79;100.00
27429;BME280;14881;48.092;11.574;2023-02-22T06:59:58;95260.66;;;-0.74;100.00
27429;BME280;14881;48.092;11.574;2023-02-22T07:02:29;95260.91;;;-0.64;100.00
27429;BME280;14881;48.092;11.574;2023-02-22T07:04:56;95265.94;;;-0.56;100.00
27429;BME280;14881;48.092;11.574;2023-02-22T07:07:24;95264.34;;;-0.45;100.00
27429;BME280;14881;48.092;11.574;2023-02-22T07:09:52;95264.84;;;-0.37;100.00
27429;BME280;14881;48.092;11.574;2023-02-22T07:12:19;95264.19;;;-0.20;100.00
27429;BME280;14881;48.092;11.574;2023-02-22T07:14:48;95264.53;;;-0.17;100.00
27429;BME280;14881;48.092;11.574;2023-02-22T07:17:16;95260.28;;;-0.06;100.00
27429;BME280;14881;48.092;11.574;2023-02-22T07:19:44;95256.94;;;-0.02;100.00
27429;BME280;14881;48.092;11.574;2023-02-22T07:22:12;95254.25;;;0.10;100.00
27429;BME280;14881;48.092;11.574;2023-02-22T07:24:39;95258.19;;;0.19;100.00
27429;BME280;14881;48.092;11.574;2023-02-22T07:27:07;95259.97;;;0.25;100.00
27429;BME280;14881;48.092;11.574;2023-02-22T07:29:35;95251.84;;;0.44;100.00
27429;BME280;14881;48.092;11.574;2023-02-22T07:32:04;95255.91;;;0.58;100.00
27429;BME280;14881;48.092;11.574;2023-02-22T07:34:32;95250.28;;;0.71;100.00
27429;BME280;14881;48.092;11.574;2023-02-22T07:37:00;95247.97;;;0.86;100.00
27429;BME280;14881;48.092;11.574;2023-02-22T07:39:28;95247.94;;;0.98;100.00
27429;BME280;14881;48.092;11.574;2023-02-22T07:41:55;95248.13;;;1.08;100.00
27429;BME280;14881;48.092;11.574;2023-02-22T07:44:24;95243.09;;;1.23;100.00
27429;BME280;14881;48.092;11.574;2023-02-22T07:46:52;95243.06;;;1.35;100.00
27429;BME280;14881;48.092;11.574;2023-02-22T07:49:21;95239.63;;;1.51;100.00
27429;BME280;14881;48.092;11.574;2023-02-22T07:51:49;95233.97;;;1.64;100.00
27429;BME280;14881;48.092;11.574;2023-02-22T07:54:16;95230.03;;;1.84;100.00
27429;BME280;14881;48.092;11.574;2023-02-22T07:56:45;95223.44;;;2.08;100.00
27429;BME280;14881;48.092;11.574;2023-02-22T07:59:13;95224.69;;;2.34;100.00
27429;BME280;14881;48.092;11.574;2023-02-22T08:01:41;95213.34;;;2.65;100.00
27429;BME280;14881;48.092;11.574;2023-02-22T08:04:09;95209.44;;;2.95;100.00
27429;BME280;14881;48.092;11.574;2023-02-22T08:06:38;95206.91;;;3.32;100.00
27429;BME280;14881;48.092;11.574;2023-02-22T08:09:06;95204.59;;;3.62;100.00
27429;BME280;14881;48.092;11.574;2023-02-22T08:11:34;95196.19;;;3.85;100.00
27429;BME280;14881;48.092;11.574;2023-02-22T08:14:02;95195.34;;;4.12;100.00
27429;BME280;14881;48.092;11.574;2023-02-22T08:16:30;95192.59;;;4.39;100.00
27429;BME280;14881;48.092;11.574;2023-02-22T08:18:57;95192.72;;;4.59;100.00
27429;BME280;14881;48.092;11.574;2023-02-22T08:21:25;95186.09;;;4.77;100.00
27429;BME280;14881;48.092;11.574;2023-02-22T08:23:54;95184.31;;;4.98;100.00
27429;BME280;14881;48.092;11.574;2023-02-22T08:26:22;95187.66;;;5.25;100.00
27429;BME280;14881;48.092;11.574;2023-02-22T08:28:50;95181.28;;;5.46;100.00
27429;BME280;14881;48.092;11.574;2023-02-22T08:31:18;95172.44;;;5.71;100.00
27429;BME280;14881;48.092;11.574;2023-02-22T08:33:47;95177.88;;;5.97;100.00
27429;BME280;14881;48.092;11.574;2023-02-22T08:36:16;95170.88;;;6.21;100.00
27429;BME280;14881;48.092;11.574;2023-02-22T08:38:44;95162.75;;;6.51;100.00
27429;BME280;14881;48.092;11.574;2023-02-22T08:41:13;95158.94;;;6.73;100.00
27429;BME280;14881;48.092;11.574;2023-02-22T08:43:41;95158.03;;;6.97;100.00
27429;BME280;14881;48.092;11.574;2023-02-22T08:46:08;95158.53;;;7.15;100.00
27429;BME280;14881;48.092;11.574;2023-02-22T08:48:38;95155.47;;;7.31;100.00
27429;BME280;14881;48.092;11.574;2023-02-22T08:51:05;95150.78;;;7.52;100.00
27429;BME280;14881;48.092;11.574;2023-02-22T08:53:33;95147.41;;;7.76;100.00
27429;BME280;14881;48.092;11.574;2023-02-22T08:56:01;95152.16;;;7.94;100.00
27429;BME280;14881;48.092;11.574;2023-02-22T08:58:30;95147.09;;;8.16;100.00
27429;BME280;14881;48.092;11.574;2023-02-22T09:00:58;95142.09;;;8.33;100.00
27429;BME280;14881;48.092;11.574;2023-02-22T09:03:26;95149.91;;;8.40;100.00
27429;BME280;14881;48.092;11.574;2023-02-22T09:05:54;95142.66;;;8.64;100.00
27429;BME280;14881;48.092;11.574;2023-02-22T09:08:21;95140.47;;;8.90;100.00
27429;BME280;14881;48.092;11.574;2023-02-22T09:10:50;95136.19;;;9.08;100.00
27429;BME280;14881;48.092;11.574;2023-02-22T09:13:18;95140.84;;;9.26;100.00
27429;BME280;14881;48.092;11.574;2023-02-22T09:15:47;95141.22;;;9.38;100.00
27429;BME280;14881;48.092;11.574;2023-02-22T09:18:14;95142.34;;;9.56;100.00
27429;BME280;14881;48.092;11.574;2023-02-22T09:20:43;95140.69;;;9.79;100.00
27429;BME280;14881;48.092;11.574;2023-02-22T09:23:11;95131.22;;;9.95;100.00
27429;BME280;14881;48.092;11.574;2023-02-22T09:25:40;95136.84;;;10.18;100.00
27429;BME280;14881;48.092;11.574;2023-02-22T09:28:07;95130.81;;;10.39;100.00
27429;BME280;14881;48.092;11.574;2023-02-22T09:30:35;95130.75;;;10.58;100.00
27429;BME280;14881;48.092;11.574;2023-02-22T09:33:07;95125.69;;;10.84;100.00
27429;BME280;14881;48.092;11.574;2023-02-22T09:35:36;95127.59;;;11.11;96.78
27429;BME280;14881;48.092;11.574;2023-02-22T09:38:08;95122.75;;;11.35;97.78
27429;BME280;14881;48.092;11.574;2023-02-22T09:40:39;95123.94;;;11.57;92.26
27429;BME280;14881;48.092;11.574;2023-02-22T09:43:23;95118.69;;;11.74;86.65
27429;BME280;14881;48.092;11.574;2023-02-22T09:46:07;95114.47;;;12.04;87.06
27429;BME280;14881;48.092;11.574;2023-02-22T09:48:52;95115.59;;;12.25;80.11
27429;BME280;14881;48.092;11.574;2023-02-22T09:51:24;95102.59;;;12.44;81.60
27429;BME280;14881;48.092;11.574;2023-02-22T09:53:56;95106.16;;;12.84;77.44
27429;BME280;14881;48.092;11.574;2023-02-22T09:56:26;95105.53;;;13.18;74.72
27429;BME280;14881;48.092;11.574;2023-02-22T09:58:59;95104.03;;;13.43;71.51
27429;BME280;14881;48.092;11.574;2023-02-22T10:01:31;95095.69;;;13.48;66.25
27429;BME280;14881;48.092;11.574;2023-02-22T10:04:09;95096.69;;;13.78;64.68
27429;BME280;14881;48.092;11.574;2023-02-22T10:06:56;95100.88;;;13.84;62.55
27429;BME280;14881;48.092;11.574;2023-02-22T10:09:27;95090.91;;;14.40;64.27
27429;BME280;14881;48.092;11.574;2023-02-22T10:11:58;95081.66;;;14.79;60.27
27429;BME280;14881;48.092;11.574;2023-02-22T10:14:36;95076.13;;;15.35;62.08
27429;BME280;14881;48.092;11.574;2023-02-22T10:17:16;95083.31;;;15.77;58.22
27429;BME280;14881;48.092;11.574;2023-02-22T10:19:59;95069.34;;;16.12;54.87
27429;BME280;14881;48.092;11.574;2023-02-22T10:22:40;95071.34;;;16.44;61.37
27429;BME280;14881;48.092;11.574;2023-02-22T10:25:13;95066.13;;;16.63;55.35
27429;BME280;14881;48.092;11.574;2023-02-22T10:27:46;95057.88;;;17.33;60.07
27429;BME280;14881;48.092;11.574;2023-02-22T10:30:20;95068.16;;;17.85;56.54
27429;BME280;14881;48.092;11.574;2023-02-22T10:32:54;95068.97;;;17.97;48.76
27429;BME280;14881;48.092;11.574;2023-02-22T10:35:28;95051.91;;;18.32;49.02
27429;BME280;14881;48.092;11.574;2023-02-22T10:37:59;95064.53;;;18.61;46.54
27429;BME280;14881;48.092;11.574;2023-02-22T10:40:30;95046.97;;;18.65;48.45
27429;BME280;14881;48.092;11.574;2023-02-22T10:43:02;95058.16;;;18.72;43.80
27429;BME280;14881;48.092;11.574;2023-02-22T10:45:32;95056.53;;;18.71;45.01
27429;BME280;14881;48.092;11.574;2023-02-22T10:48:05;95051.41;;;18.70;42.89
27429;BME280;14881;48.092;11.574;2023-02-22T10:50:40;95049.31;;;19.10;42.72
27429;BME280;14881;48.092;11.574;2023-02-22T10:53:09;95050.13;;;19.27;43.19
27429;BME280;14881;48.092;11.574;2023-02-22T10:56:06;95045.03;;;19.44;41.47
27429;BME280;14881;48.092;11.574;2023-02-22T10:58:46;95044.16;;;19.72;41.50
27429;BME280;14881;48.092;11.574;2023-02-22T11:01:20;95046.28;;;19.47;41.73
27429;BME280;14881;48.092;11.574;2023-02-22T11:04:09;95039.91;;;19.11;41.65
27429;BME280;14881;48.092;11.574;2023-02-22T11:06:40;95038.41;;;18.98;42.13
27429;BME280;14881;48.092;11.574;2023-02-22T11:09:12;95036.25;;;19.07;43.57
27429;BME280;14881;48.092;11.574;2023-02-22T11:11:44;95034.75;;;19.26;43.78
27429;BME280;14881;48.092;11.574;2023-02-22T11:14:35;95028.59;;;19.48;43.01
27429;BME280;14881;48.092;11.574;2023-02-22T11:17:06;95025.91;;;20.02;40.51
27429;BME280;14881;48.092;11.574;2023-02-22T11:19:36;95021.63;;;20.05;40.28
27429;BME280;14881;48.092;11.574;2023-02-22T11:22:09;95013.50;;;20.31;38.47
27429;BME280;14881;48.092;11.574;2023-02-22T11:24:43;95002.44;;;20.31;39.26
27429;BME280;14881;48.092;11.574;2023-02-22T11:27:26;95007.75;;;20.01;41.04
27429;BME280;14881;48.092;11.574;2023-02-22T11:30:06;95000.00;;;20.07;40.64
27429;BME280;14881;48.092;11.574;2023-02-22T11:32:35;95000.19;;;19.98;38.90
27429;BME280;14881;48.092;11.574;2023-02-22T11:38:14;94992.09;;;20.44;38.81
27429;BME280;14881;48.092;11.574;2023-02-22T11:40:43;94993.09;;;19.97;39.28
27429;BME280;14881;48.092;11.574;2023-02-22T11:43:16;94988.06;;;19.84;40.24
27429;BME280;14881;48.092;11.574;2023-02-22T11:46:00;94990.31;;;19.78;37.77
27429;BME280;14881;48.092;11.574;2023-02-22T11:48:32;94979.41;;;20.39;40.46
27429;BME280;14881;48.092;11.574;2023-02-22T11:51:15;94978.41;;;20.70;38.22
27429;BME280;14881;48.092;11.574;2023-02-22T11:54:01;94976.19;;;20.57;36.65
27429;BME280;14881;48.092;11.574;2023-02-22T11:56:38;94975.66;;;20.51;38.64
27429;BME280;14881;48.092;11.574;2023-02-22T11:59:18;94965.56;;;20.59;37.66
27429;BME280;14881;48.092;11.574;2023-02-22T12:01:54;94972.03;;;20.89;38.22
27429;BME280;14881;48.092;11.574;2023-02-22T12:04:49;94964.47;;;21.09;35.12
27429;BME280;14881;48.092;11.574;2023-02-22T12:07:33;94965.88;;;20.99;34.26
27429;BME280;14881;48.092;11.574;2023-02-22T12:10:16;94974.31;;;20.64;35.36
27429;BME280;14881;48.092;11.574;2023-02-22T12:12:57;94960.00;;;20.78;37.16
27429;BME280;14881;48.092;11.574;2023-02-22T12:15:35;94956.25;;;20.90;36.57
27429;BME280;14881;48.092;11.574;2023-02-22T12:18:09;94957.31;;;20.62;37.05
27429;BME280;14881;48.092;11.574;2023-02-22T12:20:43;94956.63;;;21.14;36.95
27429;BME280;14881;48.092;11.574;2023-02-22T12:23:17;94950.53;;;21.02;37.30
27429;BME280;14881;48.092;11.574;2023-02-22T12:25:55;94949.13;;;21.11;37.19
27429;BME280;14881;48.092;11.574;2023-02-22T12:28:29;94949.47;;;21.10;37.13
27429;BME280;14881;48.092;11.574;2023-02-22T12:31:08;94949.91;;;20.66;37.39
27429;BME280;14881;48.092;11.574;2023-02-22T12:33:47;94942.69;;;20.58;37.39
27429;BME280;14881;48.092;11.574;2023-02-22T12:36:19;94943.09;;;19.99;39.04
27429;BME280;14881;48.092;11.574;2023-02-22T12:38:56;94948.88;;;19.74;40.53
27429;BME280;14881;48.092;11.574;2023-02-22T12:41:36;94948.94;;;19.08;43.66
27429;BME280;14881;48.092;11.574;2023-02-22T12:44:09;94949.22;;;18.71;44.20
27429;BME280;14881;48.092;11.574;2023-02-22T12:46:46;94952.09;;;18.31;45.54
27429;BME280;14881;48.092;11.574;2023-02-22T12:49:20;94952.09;;;18.03;46.22
27429;BME280;14881;48.092;11.574;2023-02-22T12:51:56;94944.28;;;18.05;48.02
27429;BME280;14881;48.092;11.574;2023-02-22T12:54:40;94940.88;;;18.24;46.00
27429;BME280;14881;48.092;11.574;2023-02-22T12:57:17;94941.69;;;18.25;45.29
27429;BME280;14881;48.092;11.574;2023-02-22T12:59:48;94934.63;;;18.55;46.16
27429;BME280;14881;48.092;11.574;2023-02-22T13:02:20;94939.00;;;18.72;45.06
27429;BME280;14881;48.092;11.574;2023-02-22T13:04:50;94929.28;;;19.60;45.91
27429;BME280;14881;48.092;11.574;2023-02-22T13:07:26;94916.81;;;20.05;42.23
27429;BME280;14881;48.092;11.574;2023-02-22T13:10:20;94914.66;;;20.56;39.61
27429;BME280;14881;48.092;11.574;2023-02-22T13:12:57;94911.91;;;21.05;40.09
27429;BME280;14881;48.092;11.574;2023-02-22T13:15:37;94916.84;;;20.93;39.99